Time;durP1;ratioP1;P1;durP2;ratioP2;P2;SDS_P1;SDS_P2;PMS_P1;PMS_P2;Temp;Humidity;BMP_temperature;BMP_pressure;BME280_temperature;BME280_humidity;BME280_pressure;Samples;Min_cycle;Max_cycle;Signal;HPM_P1;HPM_P2
2022/12/14 00:03:41;;;;;;;25.48;14.70;;;;;;;-1.96;57.90;99510.38;7604095;32;38701;-86
2022/12/14 00:07:58;;;;;;;30.98;15.32;;;;;;;-2.26;58.94;99520.44;7604336;32;37363;-86
2022/12/14 00:12:14;;;;;;;26.00;14.63;;;;;;;-1.91;57.65;99518.63;7603545;32;39084;-87
2022/12/14 00:16:32;;;;;;;26.35;15.65;;;;;;;-2.18;57.86;99506.13;7604374;32;40518;-86
2022/12/14 00:20:48;;;;;;;25.02;16.20;;;;;;;-1.76;57.05;99512.31;7604619;32;37864;-86
2022/12/14 00:25:05;;;;;;;26.60;17.52;;;;;;;-2.18;58.79;99527.50;7608060;32;37134;-86
2022/12/14 00:29:22;;;;;;;34.65;17.37;;;;;;;-2.04;58.45;99528.41;7607153;32;39537;-85
2022/12/14 00:33:38;;;;;;;33.30;17.55;;;;;;;-2.02;58.77;99529.84;7607462;32;41162;-86
2022/12/14 00:37:54;;;;;;;28.62;17.35;;;;;;;-2.17;59.41;99523.81;7607272;32;38006;-85
2022/12/14 00:42:11;;;;;;;30.92;17.37;;;;;;;-1.84;58.06;99528.53;7607415;32;37349;-86
2022/12/14 00:46:27;;;;;;;31.02;18.10;;;;;;;-1.62;57.78;99532.75;7607252;32;39276;-84
2022/12/14 00:50:47;;;;;;;32.15;18.67;;;;;;;-1.93;59.12;99542.06;7607373;32;40876;-86
2022/12/14 00:55:04;;;;;;;40.00;20.30;;;;;;;-1.67;58.25;99529.00;7606891;32;38515;-85
2022/12/14 00:59:20;;;;;;;39.88;20.00;;;;;;;-1.71;58.58;99534.78;7607285;32;37175;-86
2022/12/14 01:03:42;;;;;;;34.55;18.87;;;;;;;-1.79;58.84;99542.13;7607278;32;39283;-86
2022/12/14 01:07:58;;;;;;;36.17;20.60;;;;;;;-2.02;59.68;99548.56;7607453;32;40167;-86
2022/12/14 01:12:14;;;;;;;36.03;19.65;;;;;;;-2.14;60.00;99548.28;7607082;32;37704;-86
2022/12/14 01:16:31;;;;;;;40.53;21.35;;;;;;;-2.14;59.80;99545.63;7607086;32;37487;-86
2022/12/14 01:20:47;;;;;;;47.30;23.38;;;;;;;-2.35;60.67;99549.16;7607075;32;39513;-85
2022/12/14 01:25:04;;;;;;;44.67;22.35;;;;;;;-2.37;60.90;99550.38;7606708;32;40728;-85
2022/12/14 01:29:20;;;;;;;52.62;22.37;;;;;;;-2.49;61.51;99544.72;7606753;32;38495;-86
2022/12/14 01:33:37;;;;;;;38.55;21.25;;;;;;;-2.44;61.69;99538.81;7606636;32;37885;-86
2022/12/14 01:37:53;;;;;;;35.85;19.73;;;;;;;-2.43;61.90;99535.97;7606691;32;39322;-87
2022/12/14 01:42:14;;;;;;;49.33;22.10;;;;;;;-2.37;61.94;99521.00;7606684;32;40736;-86
2022/12/14 01:46:39;;;;;;;43.85;20.88;;;;;;;-2.56;63.68;99530.50;7606566;32;38562;-86
2022/12/14 01:50:56;;;;;;;40.58;19.90;;;;;;;-2.13;62.07;99522.41;7606222;32;38066;-85
2022/12/14 01:55:23;;;;;;;47.45;20.45;;;;;;;-2.57;63.09;99550.19;7606629;32;39284;-85
2022/12/14 01:59:42;;;;;;;39.67;19.25;;;;;;;-2.37;62.65;99545.84;7606537;32;40183;-85
2022/12/14 02:03:59;;;;;;;48.53;21.67;;;;;;;-2.47;62.98;99546.19;7605335;32;38566;-86
2022/12/14 02:08:16;;;;;;;47.15;21.25;;;;;;;-2.43;62.68;99551.13;7606447;32;37274;-86
2022/12/14 02:12:40;;;;;;;49.85;21.58;;;;;;;-2.34;62.71;99539.31;7605274;32;40181;-85
2022/12/14 02:16:56;;;;;;;44.72;20.60;;;;;;;-2.28;62.13;99527.84;7605335;32;40585;-86
2022/12/14 02:21:35;;;;;;;35.35;17.58;;;;;;;-2.58;63.48;99540.56;7604737;32;37748;-85
2022/12/14 02:26:05;;;;;;;44.88;20.33;;;;;;;-2.54;63.39;99528.47;7606298;32;37531;-85
2022/12/14 02:30:23;;;;;;;45.10;19.75;;;;;;;-2.65;63.43;99545.84;7606244;32;39110;-85
2022/12/14 02:34:49;;;;;;;42.40;20.30;;;;;;;-2.25;62.52;99532.78;7606158;32;40768;-86
2022/12/14 02:39:17;;;;;;;42.28;20.20;;;;;;;-2.22;62.18;99531.59;7605596;32;37964;-86
2022/12/14 02:44:14;;;;;;;39.05;19.70;;;;;;;-2.40;62.26;99519.53;7604074;32;38063;-84
2022/12/14 02:48:39;;;;;;;51.00;21.20;;;;;;;-2.54;62.77;99513.25;7605657;32;39976;-85
2022/12/14 02:53:12;;;;;;;50.03;21.15;;;;;;;-2.25;61.89;99502.59;7604887;32;40825;-85
2022/12/14 02:57:49;;;;;;;40.40;19.35;;;;;;;-2.04;61.05;99501.69;7605966;32;38543;-85
2022/12/14 03:02:05;;;;;;;38.92;18.90;;;;;;;-1.97;60.96;99492.69;7604851;32;37326;-84
2022/12/14 03:06:26;;;;;;;42.65;20.85;;;;;;;-1.97;60.76;99498.03;7604631;32;39019;-86
2022/12/14 03:10:47;;;;;;;42.50;21.35;;;;;;;-2.17;61.77;99491.78;7605684;32;39894;-86
2022/12/14 03:15:05;;;;;;;44.03;19.83;;;;;;;-2.20;61.78;99484.97;7604494;32;37926;-85
2022/12/14 03:19:22;;;;;;;41.67;21.30;;;;;;;-1.94;61.20;99481.59;7604057;32;36176;-85
2022/12/14 03:23:40;;;;;;;47.92;20.62;;;;;;;-2.22;62.08;99472.84;7605653;32;39315;-85
2022/12/14 03:28:12;;;;;;;52.17;20.23;;;;;;;-1.97;61.85;99467.81;7604314;32;39813;-85
2022/12/14 03:32:30;;;;;;;42.83;19.27;;;;;;;-1.72;61.39;99452.13;7605487;32;37877;-85
2022/12/14 03:36:49;;;;;;;48.28;21.85;;;;;;;-1.61;60.92;99448.84;7604110;32;37830;-86
2022/12/14 03:41:26;;;;;;;52.85;19.85;;;;;;;-1.70;61.41;99434.84;7603620;32;39402;-84
2022/12/14 03:45:52;;;;;;;43.40;18.20;;;;;;;-1.53;61.25;99418.44;7605015;32;40790;-84
2022/12/14 03:50:38;;;;;;;48.87;19.40;;;;;;;-1.56;61.59;99422.34;7605097;32;38484;-84
2022/12/14 03:54:59;;;;;;;42.72;20.40;;;;;;;-2.08;63.44;99429.97;7602333;32;38038;-85
2022/12/14 03:59:24;;;;;;;47.70;19.02;;;;;;;-1.56;61.79;99424.19;7603908;32;39314;-84
2022/12/14 04:03:45;;;;;;;47.40;20.50;;;;;;;-1.55;61.74;99425.84;7604997;32;39728;-85
2022/12/14 04:08:05;;;;;;;54.58;20.75;;;;;;;-1.74;62.18;99425.59;7604745;32;38421;-84
2022/12/14 04:22:21;;;;;;;49.63;21.60;;;;;;;-1.65;62.20;99442.28;7587078;32;39806;-84
2022/12/14 04:26:42;;;;;;;43.67;19.10;;;;;;;-1.64;61.48;99427.03;7603250;32;38631;-84
2022/12/14 04:31:12;;;;;;;48.55;20.15;;;;;;;-1.52;60.85;99436.13;7603155;32;37826;-85
2022/12/14 04:35:34;;;;;;;47.60;19.17;;;;;;;-1.76;61.88;99435.66;7603197;32;39307;-85
2022/12/14 04:40:08;;;;;;;47.10;20.33;;;;;;;-1.40;60.97;99433.69;7594284;32;264973;-84
2022/12/14 04:44:52;;;;;;;47.72;19.90;;;;;;;-1.98;63.13;99431.47;7604007;32;39058;-85
2022/12/14 04:49:08;;;;;;;46.72;19.30;;;;;;;-1.49;61.54;99429.56;7603942;32;36964;-85
2022/12/14 04:53:27;;;;;;;47.95;20.12;;;;;;;-1.64;61.62;99419.84;7603815;32;39428;-84
2022/12/14 04:57:50;;;;;;;47.30;21.30;;;;;;;-1.66;61.69;99407.72;7602592;32;40708;-84
2022/12/14 05:02:19;;;;;;;41.95;19.20;;;;;;;-1.77;62.21;99401.94;7603583;32;37786;-84
2022/12/14 05:06:55;;;;;;;48.17;21.02;;;;;;;-1.54;61.71;99395.41;7603289;32;37954;-83
2022/12/14 05:11:25;;;;;;;45.88;21.20;;;;;;;-1.63;62.28;99394.78;7606121;32;39333;-84
2022/12/14 05:16:01;;;;;;;55.88;20.83;;;;;;;-1.89;62.67;99388.31;7606700;32;40342;-83
2022/12/14 05:20:20;;;;;;;46.42;21.92;;;;;;;-1.63;62.04;99384.06;7605803;32;37958;-84
2022/12/14 05:24:36;;;;;;;51.03;19.23;;;;;;;-1.69;61.95;99382.22;7607286;32;38033;-84
2022/12/14 05:28:53;;;;;;;52.78;21.37;;;;;;;-1.76;62.24;99376.84;7607022;32;39389;-84
2022/12/14 05:33:20;;;;;;;53.47;21.58;;;;;;;-2.14;63.94;99387.19;7606790;32;39915;-87
2022/12/14 05:37:37;;;;;;;53.05;22.08;;;;;;;-1.65;62.42;99351.38;7605705;32;38027;-85
2022/12/14 05:41:53;;;;;;;50.40;20.12;;;;;;;-1.51;62.18;99310.25;7606658;32;37178;-85
2022/12/14 05:46:10;;;;;;;45.60;19.58;;;;;;;-1.29;61.54;99317.25;7606919;32;39432;-85
2022/12/14 05:50:27;;;;;;;45.25;20.65;;;;;;;-1.71;62.97;99326.28;7606667;32;39932;-85
2022/12/14 05:54:43;;;;;;;52.08;22.00;;;;;;;-1.64;62.76;99352.19;7606661;32;38590;-86
2022/12/14 05:58:59;;;;;;;48.50;20.35;;;;;;;-1.49;62.75;99360.84;7606719;32;37203;-84
2022/12/14 06:03:15;;;;;;;54.47;22.25;;;;;;;-1.41;62.63;99367.87;7606601;32;40214;-84
2022/12/14 06:07:31;;;;;;;54.20;22.05;;;;;;;-1.40;62.47;99364.16;7606042;32;40867;-85
2022/12/14 06:11:48;;;;;;;50.03;22.42;;;;;;;-1.60;62.52;99353.47;7606230;32;38785;-85
2022/12/14 06:16:20;;;;;;;52.70;20.30;;;;;;;-1.30;62.37;99332.47;7606520;32;37190;-85
2022/12/14 06:20:37;;;;;;;52.38;21.95;;;;;;;-1.18;62.24;99317.47;7606448;32;40191;-86
2022/12/14 06:24:53;;;;;;;48.13;20.45;;;;;;;-1.42;63.17;99328.78;7605295;32;40021;-86
2022/12/14 06:29:19;;;;;;;52.30;20.50;;;;;;;-0.99;62.13;99331.03;7606075;32;37928;-84
2022/12/14 06:33:35;;;;;;;41.65;20.42;;;;;;;-0.70;61.00;99311.00;7606435;32;37282;-86
2022/12/14 06:37:52;;;;;;;50.67;20.77;;;;;;;-0.79;61.10;99315.78;7605922;32;39286;-85
2022/12/14 06:42:08;;;;;;;44.58;19.48;;;;;;;-1.12;62.09;99315.00;7606267;32;40500;-85
2022/12/14 06:46:25;;;;;;;49.80;20.90;;;;;;;-0.75;61.13;99310.81;7604962;32;37698;-86
2022/12/14 06:50:41;;;;;;;43.28;20.33;;;;;;;-1.01;61.63;99311.69;7606079;32;37533;-86
2022/12/14 06:54:57;;;;;;;44.63;20.73;;;;;;;-1.41;62.93;99303.69;7606104;32;39246;-85
2022/12/14 06:59:14;;;;;;;46.20;19.92;;;;;;;-1.00;62.34;99289.25;7606022;32;40803;-85
2022/12/14 07:03:30;;;;;;;44.03;19.52;;;;;;;-1.41;63.15;99280.44;7605728;32;37990;-84
2022/12/14 07:07:47;;;;;;;34.90;17.87;;;;;;;-0.95;62.24;99289.44;7605830;32;37454;-84
2022/12/14 07:12:04;;;;;;;40.88;20.20;;;;;;;-0.51;60.96;99284.41;7605940;32;40184;-86
2022/12/14 07:16:25;;;;;;;33.05;17.98;;;;;;;-0.83;62.03;99295.81;7605832;32;39919;-85
2022/12/14 07:20:41;;;;;;;37.28;16.90;;;;;;;-0.69;61.97;99296.59;7605713;32;37919;-72
2022/12/14 07:24:57;;;;;;;36.55;17.55;;;;;;;-0.69;62.62;99279.69;7605699;32;37158;-79
2022/12/14 07:29:15;;;;;;;37.03;17.27;;;;;;;0.02;69.62;99285.97;7605290;32;39310;-86
2022/12/14 07:33:31;;;;;;;34.50;17.87;;;;;;;-0.14;63.50;99292.66;7603683;32;39974;-87
2022/12/14 07:37:49;;;;;;;30.42;15.48;;;;;;;-0.24;61.54;99301.19;7603952;32;37833;-86
2022/12/14 07:42:05;;;;;;;32.85;16.02;;;;;;;-0.01;60.20;99274.66;7604257;32;38097;-86
2022/12/14 07:46:25;;;;;;;33.95;16.08;;;;;;;0.05;59.70;99272.97;7605371;32;40180;-85
2022/12/14 07:50:41;;;;;;;31.00;15.65;;;;;;;0.15;59.67;99273.31;7605146;32;40090;-87
2022/12/14 07:54:57;;;;;;;30.95;15.75;;;;;;;-0.26;60.35;99276.44;7604859;32;38682;-86
2022/12/14 07:59:15;;;;;;;28.98;15.65;;;;;;;-0.43;60.55;99266.22;7604742;32;37286;-85
2022/12/14 08:03:31;;;;;;;30.58;15.35;;;;;;;-0.31;60.45;99269.06;7591442;32;39313;-86
2022/12/14 08:07:47;;;;;;;29.92;15.07;;;;;;;-0.49;61.22;99287.69;7603994;32;40005;-84
2022/12/14 08:12:05;;;;;;;29.10;14.63;;;;;;;-0.28;60.43;99308.78;7604410;32;36919;-86
2022/12/14 08:16:22;;;;;;;22.48;12.50;;;;;;;-0.61;61.74;99322.31;7603531;32;38211;-84
2022/12/14 08:20:38;;;;;;;27.98;14.82;;;;;;;-0.07;60.00;99309.53;7604298;32;39337;-85
2022/12/14 08:24:55;;;;;;;25.02;12.73;;;;;;;-0.14;60.25;99304.19;7604364;32;40753;-86
2022/12/14 08:29:13;;;;;;;25.52;14.10;;;;;;;-0.08;61.62;99292.63;7602650;32;37830;-86
2022/12/14 08:33:29;;;;;;;27.33;14.32;;;;;;;-0.07;60.52;99288.94;7604336;32;37123;-86
2022/12/14 08:37:46;;;;;;;28.00;14.45;;;;;;;0.13;59.47;99294.16;7612425;32;39972;-87
2022/12/14 08:42:02;;;;;;;29.73;14.55;;;;;;;0.37;58.43;99289.88;7612380;32;40809;-87
2022/12/14 08:46:20;;;;;;;28.20;14.85;;;;;;;0.10;59.11;99301.81;7604386;32;37513;-87
2022/12/14 08:50:36;;;;;;;32.67;15.50;;;;;;;0.26;58.35;99287.06;7601304;32;37098;-87
2022/12/14 08:54:52;;;;;;;28.55;14.10;;;;;;;0.06;59.27;99284.53;7607174;32;39654;-85
2022/12/14 08:59:09;;;;;;;25.05;13.93;;;;;;;0.24;58.78;99286.47;7607443;32;39911;-84
2022/12/14 09:03:47;;;;;;;26.75;14.50;;;;;;;0.11;59.07;99290.06;7603571;32;38215;-85
2022/12/14 09:08:04;;;;;;;24.25;13.43;;;;;;;0.28;59.63;99269.72;7606104;32;37960;-86
2022/12/14 09:12:20;;;;;;;27.10;13.85;;;;;;;0.37;58.17;99268.41;7605615;32;40472;-85
2022/12/14 09:16:36;;;;;;;25.80;12.65;;;;;;;-0.57;60.72;99272.66;7606151;32;40637;-83
2022/12/14 09:20:56;;;;;;;28.58;14.48;;;;;;;-0.07;58.86;99251.41;7629379;32;37867;-86
2022/12/14 09:25:12;;;;;;;25.80;14.13;;;;;;;-0.46;60.33;99245.22;7607530;32;38501;-83
2022/12/14 09:29:29;;;;;;;23.30;12.82;;;;;;;-0.09;59.41;99245.41;7605837;32;40099;-84
2022/12/14 09:33:46;;;;;;;27.55;13.55;;;;;;;-0.54;60.25;99244.66;7623965;32;40148;-85
2022/12/14 09:38:02;;;;;;;27.45;14.93;;;;;;;0.03;58.95;99250.91;7605346;32;37733;-85
2022/12/14 09:42:48;;;;;;;24.17;14.60;;;;;;;0.00;58.67;99251.38;7606406;32;36883;-84
2022/12/14 09:47:09;;;;;;;26.90;14.85;;;;;;;0.12;58.69;99254.16;7617283;32;39126;-85
2022/12/14 09:51:35;;;;;;;30.23;14.60;;;;;;;0.10;58.72;99256.25;7606342;32;39983;-85
2022/12/14 09:55:54;;;;;;;26.50;14.80;;;;;;;0.31;58.03;99249.69;7603173;32;37803;-84
2022/12/14 10:00:18;;;;;;;27.62;13.80;;;;;;;0.23;57.83;99250.78;7603139;32;37198;-85
2022/12/14 10:04:46;;;;;;;25.08;12.93;;;;;;;0.72;56.56;99230.34;7603384;32;39948;-84
2022/12/14 10:09:17;;;;;;;26.75;14.07;;;;;;;0.41;57.20;99219.72;7580139;32;40885;-85
2022/12/14 10:13:41;;;;;;;28.27;13.20;;;;;;;0.53;56.55;99212.59;7606578;32;38659;-87
2022/12/14 10:18:11;;;;;;;26.40;13.70;;;;;;;0.53;56.86;99193.81;7604966;32;37971;-84
2022/12/14 10:22:51;;;;;;;26.30;13.60;;;;;;;0.02;58.29;99189.50;7605726;32;40519;-84
2022/12/14 10:27:10;;;;;;;24.45;13.30;;;;;;;-0.44;59.49;99184.22;7604061;32;39809;-84
2022/12/14 10:31:39;;;;;;;26.75;13.45;;;;;;;0.08;58.10;99162.63;7603516;32;37782;-84
2022/12/14 10:36:25;;;;;;;23.75;13.55;;;;;;;0.14;58.10;99161.78;7602424;32;38057;-84
2022/12/14 10:41:03;;;;;;;33.45;15.00;;;;;;;0.28;57.81;99153.63;7602395;32;39174;-84
2022/12/14 10:45:55;;;;;;;30.58;14.57;;;;;;;0.32;57.40;99152.94;7588403;32;40470;-84
2022/12/14 10:50:33;;;;;;;29.95;14.40;;;;;;;-0.49;59.77;99138.53;7599462;32;38673;-84
2022/12/14 10:54:54;;;;;;;29.63;14.52;;;;;;;-0.16;59.25;99137.47;7605239;32;38041;-84
2022/12/14 10:59:17;;;;;;;25.48;14.15;;;;;;;0.21;58.04;99161.72;7604989;32;39109;-84
2022/12/14 11:03:33;;;;;;;25.43;13.57;;;;;;;0.45;56.87;99138.59;7606104;32;39899;-84
2022/12/14 11:07:49;;;;;;;28.60;14.87;;;;;;;0.27;57.17;99131.34;7603648;32;37990;-84
2022/12/14 11:12:38;;;;;;;25.30;14.27;;;;;;;0.27;57.31;99125.97;7605921;32;37483;-84
2022/12/14 11:16:54;;;;;;;26.98;14.00;;;;;;;0.22;57.40;99115.09;7601589;32;39867;-84
2022/12/14 11:21:14;;;;;;;28.50;14.18;;;;;;;0.04;58.13;99101.66;7605821;32;40667;-84
2022/12/14 11:25:42;;;;;;;32.42;15.77;;;;;;;-0.21;57.97;99094.44;7604644;32;37550;-84
2022/12/14 11:30:00;;;;;;;27.33;14.48;;;;;;;0.18;57.47;99104.00;7605792;32;37288;-84
2022/12/14 11:34:41;;;;;;;24.73;13.30;;;;;;;0.47;56.66;99100.84;7605669;32;39911;-84
2022/12/14 11:39:18;;;;;;;28.65;14.43;;;;;;;0.09;57.14;99088.44;7604436;32;40801;-84
2022/12/14 11:43:34;;;;;;;30.00;14.93;;;;;;;-0.01;57.85;99083.56;7605351;32;38424;-84
2022/12/14 11:48:09;;;;;;;21.83;12.35;;;;;;;0.36;56.80;99083.59;7605478;32;37894;-84
2022/12/14 11:52:41;;;;;;;29.15;14.55;;;;;;;0.42;56.77;99076.56;7604122;32;40056;-84
2022/12/14 11:57:12;;;;;;;22.33;12.20;;;;;;;0.31;56.67;99080.78;7605225;32;40810;-84
2022/12/14 12:01:29;;;;;;;30.50;13.57;;;;;;;0.38;56.77;99073.50;7604053;32;37853;-84
2022/12/14 12:05:45;;;;;;;27.45;14.02;;;;;;;0.33;57.16;99062.63;7604756;32;37311;-85
2022/12/14 12:10:24;;;;;;;24.12;13.10;;;;;;;0.50;56.47;99049.41;7604800;32;40242;-85
2022/12/14 12:14:41;;;;;;;25.08;13.48;;;;;;;0.49;55.68;99050.47;7604843;32;39844;-83
2022/12/14 12:19:12;;;;;;;26.87;14.05;;;;;;;0.64;55.93;99048.22;7607421;32;37659;-85
2022/12/14 12:23:44;;;;;;;25.62;13.20;;;;;;;0.67;56.02;99053.16;7608040;32;37844;-84
2022/12/14 12:28:16;;;;;;;26.15;13.85;;;;;;;0.39;56.71;99047.50;7606912;32;39318;-84
2022/12/14 12:32:43;;;;;;;25.83;13.23;;;;;;;0.73;55.69;99038.00;7607762;32;40832;-84
2022/12/14 12:37:12;;;;;;;25.17;13.90;;;;;;;0.80;55.59;99029.88;7605571;32;37882;-84
2022/12/14 12:42:09;;;;;;;26.62;13.95;;;;;;;0.82;55.08;99025.09;7607115;32;38277;-85
2022/12/14 12:46:44;;;;;;;29.45;14.63;;;;;;;0.92;55.05;99022.69;7593716;32;39331;-83
2022/12/14 12:51:24;;;;;;;24.87;14.00;;;;;;;0.48;55.69;99014.75;7603796;32;40161;-86
2022/12/14 12:55:53;;;;;;;26.12;12.82;;;;;;;0.74;54.77;98989.50;7605295;32;38114;-85
2022/12/14 13:00:19;;;;;;;24.05;12.57;;;;;;;0.72;55.24;98982.69;7606441;32;37398;-85
2022/12/14 13:04:40;;;;;;;27.27;13.10;;;;;;;0.83;54.83;98981.09;7602802;32;40012;-81
2022/12/14 13:09:05;;;;;;;24.90;12.30;;;;;;;0.53;55.59;98958.59;7607164;32;40557;-81
2022/12/14 13:13:31;;;;;;;27.15;13.27;;;;;;;0.74;55.32;98968.03;7604795;32;38703;-83
2022/12/14 13:18:01;;;;;;;22.45;12.73;;;;;;;0.74;54.80;98957.28;7602852;32;38074;-83
2022/12/14 13:22:28;;;;;;;28.55;13.70;;;;;;;0.27;56.35;98975.84;7602634;32;39474;-83
2022/12/14 13:27:19;;;;;;;25.27;12.40;;;;;;;0.70;55.36;98968.69;7603517;32;39887;-83
2022/12/14 13:32:01;;;;;;;22.37;12.02;;;;;;;1.00;54.54;98957.97;7600559;32;38395;-84
2022/12/14 13:36:36;;;;;;;22.70;12.43;;;;;;;0.72;55.63;98945.12;7604295;32;36920;-83
2022/12/14 13:40:58;;;;;;;28.48;13.52;;;;;;;0.79;55.41;98937.81;7605306;32;39195;-82
2022/12/14 13:45:20;;;;;;;25.77;14.10;;;;;;;0.74;55.36;98941.19;7607038;32;40716;-83
2022/12/14 13:49:36;;;;;;;25.40;13.45;;;;;;;0.91;54.68;98924.44;7604792;32;37663;-83
2022/12/14 13:53:57;;;;;;;26.75;13.65;;;;;;;0.80;55.07;98926.03;7605723;32;37982;-83
2022/12/14 13:58:38;;;;;;;26.60;13.00;;;;;;;0.79;55.70;98921.72;7606494;32;39865;-83
2022/12/14 14:02:56;;;;;;;27.45;14.23;;;;;;;0.68;55.42;98907.22;7604816;32;39837;-83
2022/12/14 14:07:21;;;;;;;26.60;13.73;;;;;;;0.32;56.17;98895.53;7606455;32;37665;-83
2022/12/14 14:11:40;;;;;;;24.12;13.13;;;;;;;0.60;55.32;98883.38;7605701;32;37512;-83
2022/12/14 14:16:03;;;;;;;26.35;13.27;;;;;;;0.75;55.40;98888.34;7606596;32;39338;-83
2022/12/14 14:20:45;;;;;;;23.35;12.65;;;;;;;0.61;55.16;98892.28;7604587;32;41276;-83
2022/12/14 14:25:04;;;;;;;26.60;13.50;;;;;;;0.81;55.04;98886.59;7604933;32;38155;-82
2022/12/14 14:29:31;;;;;;;25.90;13.30;;;;;;;0.99;54.37;98883.84;7606205;32;37301;-83
2022/12/14 14:33:53;;;;;;;25.05;13.10;;;;;;;0.88;54.48;98877.41;7605667;32;40118;-84
2022/12/14 14:38:29;;;;;;;24.85;12.07;;;;;;;0.58;55.42;98869.41;7604859;32;40758;-83
2022/12/14 14:43:01;;;;;;;24.95;13.48;;;;;;;0.95;54.37;98861.22;7604621;32;38610;-83
2022/12/14 14:47:28;;;;;;;23.65;12.40;;;;;;;0.81;54.59;98854.41;7604929;32;37827;-83
2022/12/14 14:51:44;;;;;;;22.17;12.50;;;;;;;1.01;54.04;98867.50;7604326;32;39445;-83
2022/12/14 14:56:17;;;;;;;26.33;13.43;;;;;;;1.11;53.72;98860.50;7604601;32;39711;-83
2022/12/14 15:01:13;;;;;;;25.30;12.88;;;;;;;0.58;55.69;98861.34;7605838;32;37819;-83
2022/12/14 15:05:34;;;;;;;22.58;11.73;;;;;;;0.68;54.35;98858.13;7605834;32;37180;-84
2022/12/14 15:10:27;;;;;;;24.92;13.65;;;;;;;0.87;54.18;98848.13;7605327;32;39343;-82
2022/12/14 15:14:48;;;;;;;24.90;13.50;;;;;;;0.59;54.89;98851.44;7605432;32;40916;-83
2022/12/14 15:19:26;;;;;;;22.45;13.05;;;;;;;1.07;56.02;98855.81;7603976;32;37874;-84
2022/12/14 15:23:46;;;;;;;23.45;12.80;;;;;;;1.11;53.97;98847.06;7604068;32;37753;-85
2022/12/14 15:28:09;;;;;;;26.08;12.07;;;;;;;0.63;54.51;98861.47;7604453;32;39076;-85
2022/12/14 15:32:25;;;;;;;25.70;12.23;;;;;;;0.55;54.27;98868.00;7605990;32;38186;-85
2022/12/14 15:36:42;;;;;;;28.30;13.13;;;;;;;0.67;53.79;98868.03;7602782;32;37757;-85
2022/12/14 15:41:03;;;;;;;23.65;13.25;;;;;;;-0.01;55.79;98863.81;7605123;32;37463;-84
2022/12/14 15:45:26;;;;;;;24.02;12.45;;;;;;;0.42;54.76;98848.59;7603883;32;39527;-85
2022/12/14 15:49:42;;;;;;;28.30;14.07;;;;;;;0.48;54.78;98835.06;7605360;32;39832;-85
2022/12/14 15:54:00;;;;;;;25.42;14.82;;;;;;;0.18;56.29;98846.66;7604623;32;38535;-85
2022/12/14 15:58:33;;;;;;;27.02;13.20;;;;;;;0.26;56.29;98844.69;7604097;32;38529;-84
2022/12/14 16:02:49;;;;;;;26.95;14.70;;;;;;;0.32;55.91;98836.56;7603484;32;39351;-84
2022/12/14 16:07:38;;;;;;;28.33;15.15;;;;;;;0.07;57.45;98839.38;7604505;32;40854;-84
2022/12/14 16:12:03;;;;;;;26.08;14.30;;;;;;;0.30;56.76;98824.44;7604039;32;38755;-84
2022/12/14 16:16:20;;;;;;;29.08;14.30;;;;;;;0.05;57.73;98817.34;7603633;32;37277;-85
2022/12/14 16:20:37;;;;;;;30.23;15.45;;;;;;;0.34;57.13;98823.72;7603334;32;40063;-84
2022/12/14 16:25:03;;;;;;;29.23;15.70;;;;;;;0.34;57.29;98810.31;7620169;32;40800;-85
2022/12/14 16:29:22;;;;;;;30.92;15.45;;;;;;;0.26;57.59;98804.47;7630408;32;38729;-85
2022/12/14 16:33:40;;;;;;;32.17;16.10;;;;;;;0.03;58.45;98806.03;7630249;32;37054;-85
2022/12/14 16:38:09;;;;;;;30.15;15.27;;;;;;;-0.11;58.64;98816.09;7629311;32;38628;-85
2022/12/14 16:42:26;;;;;;;29.70;16.42;;;;;;;0.33;57.83;98815.94;7609653;32;39968;-84
2022/12/14 16:46:54;;;;;;;28.23;16.20;;;;;;;0.20;58.08;98805.41;7602799;32;37917;-84
2022/12/14 16:51:27;;;;;;;32.08;15.85;;;;;;;0.35;57.77;98798.56;7602507;32;37196;-84
2022/12/14 16:56:04;;;;;;;30.92;15.95;;;;;;;0.32;57.73;98799.03;7599529;32;39636;-84
2022/12/14 17:00:28;;;;;;;35.65;16.95;;;;;;;0.28;57.83;98803.22;7602516;32;40048;-85
2022/12/14 17:04:45;;;;;;;32.17;17.13;;;;;;;0.27;57.74;98800.75;7605435;32;37932;-85
2022/12/14 17:09:03;;;;;;;34.15;16.48;;;;;;;0.22;58.58;98800.62;7607413;32;38283;-84
2022/12/14 17:13:19;;;;;;;29.83;16.45;;;;;;;0.29;58.27;98809.38;7620217;32;40038;-84
2022/12/14 17:17:35;;;;;;;30.42;16.75;;;;;;;-0.20;59.08;98812.13;7617371;32;41489;-85
2022/12/14 17:21:52;;;;;;;27.30;15.05;;;;;;;0.13;58.55;98813.53;7606271;32;39371;-85
2022/12/14 17:26:17;;;;;;;31.55;16.62;;;;;;;0.22;58.64;98825.56;7606850;32;37274;-85
2022/12/14 17:30:33;;;;;;;32.28;17.70;;;;;;;0.61;57.41;98822.53;7605156;32;40375;-84
2022/12/14 17:34:49;;;;;;;30.00;16.62;;;;;;;0.77;57.12;98821.03;7607017;32;40805;-85
2022/12/14 17:39:06;;;;;;;31.77;17.60;;;;;;;0.96;56.63;98819.06;7607058;32;38693;-84
2022/12/14 17:43:26;;;;;;;27.50;16.58;;;;;;;0.98;56.44;98807.03;7607145;32;37964;-83
2022/12/14 17:47:43;;;;;;;30.80;16.35;;;;;;;0.80;57.45;98799.13;7607734;32;37261;-83
2022/12/14 17:52:04;;;;;;;32.83;17.75;;;;;;;0.57;57.99;98784.62;7606865;32;39966;-85
2022/12/14 17:56:21;;;;;;;35.80;17.10;;;;;;;0.48;58.26;98786.00;7607116;32;38728;-84
2022/12/14 18:05:20;;;;;;;31.42;17.37;;;;;;;0.24;59.40;98777.88;7606808;32;40112;-84
2022/12/14 18:09:36;;;;;;;33.05;17.00;;;;;;;0.02;60.26;98782.97;7601281;32;38883;-85
2022/12/14 18:13:53;;;;;;;34.78;17.75;;;;;;;0.52;58.79;98790.69;7604009;32;37651;-87
2022/12/14 18:18:10;;;;;;;33.80;17.17;;;;;;;0.65;58.33;98791.50;7605971;32;35428;-85
2022/12/14 18:22:26;;;;;;;28.90;16.75;;;;;;;0.58;58.69;98796.16;7605256;32;40116;-85
2022/12/14 18:26:42;;;;;;;34.10;17.10;;;;;;;0.23;59.30;98784.31;7605797;32;39245;-85
2022/12/14 18:31:03;;;;;;;31.58;17.73;;;;;;;0.45;59.52;98773.03;7605200;32;38702;-85
2022/12/14 18:35:25;;;;;;;32.20;16.65;;;;;;;0.02;60.15;98760.69;7605233;32;37316;-85
2022/12/14 18:39:41;;;;;;;33.33;18.02;;;;;;;0.44;59.44;98764.19;7605074;32;40164;-85
2022/12/14 18:44:02;;;;;;;35.17;17.98;;;;;;;0.16;60.45;98773.69;7605863;32;39566;-86
2022/12/14 18:48:19;;;;;;;27.55;16.25;;;;;;;0.48;59.18;98775.28;7605412;32;37705;-85
2022/12/14 18:52:35;;;;;;;34.70;17.23;;;;;;;0.66;58.96;98777.06;7604303;32;37264;-85
2022/12/14 18:56:51;;;;;;;29.75;16.80;;;;;;;0.32;59.58;98771.41;7605832;32;38924;-85
2022/12/14 19:01:12;;;;;;;35.17;18.70;;;;;;;0.55;59.04;98771.44;7603454;32;39932;-82
2022/12/14 19:05:29;;;;;;;28.85;16.65;;;;;;;0.68;58.66;98773.09;7605653;32;37585;-82
2022/12/14 19:09:45;;;;;;;30.65;16.30;;;;;;;0.58;59.10;98770.16;7597127;32;37259;-83
2022/12/14 19:14:01;;;;;;;32.67;17.05;;;;;;;0.57;59.26;98768.53;7605289;32;39414;-85
2022/12/14 19:18:17;;;;;;;30.62;16.73;;;;;;;0.50;58.96;98767.81;7605116;32;40757;-84
2022/12/14 19:22:34;;;;;;;29.48;17.23;;;;;;;0.74;58.73;98755.22;7604479;32;37128;-85
2022/12/14 19:26:54;;;;;;;29.90;17.48;;;;;;;0.84;58.56;98765.38;7603696;32;35914;-85
2022/12/14 19:31:10;;;;;;;30.15;16.37;;;;;;;0.92;58.18;98754.31;7603346;32;39170;-84
2022/12/14 19:35:27;;;;;;;26.50;14.95;;;;;;;0.77;58.26;98749.41;7604598;32;39908;-72
2022/12/14 19:39:43;;;;;;;31.37;16.58;;;;;;;1.00;68.86;98750.44;7603183;32;38726;-84
2022/12/14 19:43:59;;;;;;;34.72;18.60;;;;;;;1.33;64.02;98733.72;7605034;32;37928;-84
2022/12/14 19:48:16;;;;;;;34.38;18.90;;;;;;;1.14;59.28;98725.00;7610517;32;39428;-83
2022/12/14 19:52:32;;;;;;;27.58;16.33;;;;;;;1.33;58.53;98727.50;7618159;32;40192;-84
2022/12/14 19:56:50;;;;;;;33.10;17.60;;;;;;;1.10;58.91;98723.81;7603627;32;38803;-84
2022/12/14 20:01:12;;;;;;;33.85;18.48;;;;;;;0.90;59.65;98741.13;7603131;32;37343;-82
2022/12/14 20:05:28;;;;;;;33.50;18.90;;;;;;;1.09;58.59;98739.12;7605409;32;39728;-84
2022/12/14 20:09:44;;;;;;;32.72;18.05;;;;;;;1.40;57.90;98737.09;7604124;32;39936;-84
2022/12/14 20:14:00;;;;;;;32.53;18.55;;;;;;;1.21;58.66;98736.41;7591062;32;37774;-84
2022/12/14 20:18:19;;;;;;;32.00;18.42;;;;;;;1.01;58.99;98736.78;7602507;32;38020;-85
2022/12/14 20:22:37;;;;;;;31.55;17.75;;;;;;;1.30;58.04;98718.06;7603584;32;39416;-84
2022/12/14 20:26:55;;;;;;;32.63;17.90;;;;;;;1.02;58.91;98722.34;7603835;32;40757;-85
2022/12/14 20:31:15;;;;;;;34.90;17.27;;;;;;;1.05;58.91;98711.13;7603407;32;38645;-85